createdAt,value
2018-12-21T00:01:15.873Z,70.47
2018-12-21T00:03:42.368Z,70.81
2018-12-21T00:06:08.521Z,71.05
2018-12-21T00:08:41.491Z,71.02
2018-12-21T00:11:07.574Z,71.90
2018-12-21T00:13:34.356Z,71.29
2018-12-21T00:16:00.360Z,71.25
2018-12-21T00:18:26.356Z,71.91
2018-12-21T00:20:52.340Z,71.89
2018-12-21T00:23:18.338Z,71.08
2018-12-21T00:25:44.301Z,71.80
2018-12-21T00:28:10.299Z,71.67
2018-12-21T00:30:36.176Z,71.54
2018-12-21T00:33:08.356Z,70.70
2018-12-21T00:35:40.526Z,71.62
2018-12-21T00:38:19.814Z,71.21
2018-12-21T00:40:51.864Z,71.37
2018-12-21T00:43:19.902Z,70.91
2018-12-21T00:45:47.922Z,71.83
2018-12-21T00:48:13.895Z,71.97
2018-12-21T00:50:39.898Z,70.80
2018-12-21T00:53:05.864Z,70.06
2018-12-21T00:55:31.856Z,70.43
2018-12-21T00:57:57.928Z,70.76
2018-12-21T01:00:24.361Z,71.80
2018-12-21T01:02:50.465Z,71.95
2018-12-21T01:05:16.411Z,72.13
2018-12-21T01:07:42.479Z,72.08
2018-12-21T01:10:08.819Z,72.09
2018-12-21T01:12:34.765Z,71.06
2018-12-21T01:15:00.783Z,71.73
2018-12-21T01:17:26.741Z,71.35
2018-12-21T01:19:52.817Z,71.39
2018-12-21T01:22:18.805Z,70.93
2018-12-21T01:24:44.851Z,71.37
2018-12-21T01:27:10.994Z,71.21
2018-12-21T01:29:36.978Z,71.14
2018-12-21T01:32:02.997Z,70.92
2018-12-21T01:34:28.957Z,71.50
2018-12-21T01:36:54.955Z,70.97
2018-12-21T01:39:20.991Z,69.79
2018-12-21T01:41:47.541Z,70.84
2018-12-21T01:44:13.520Z,70.73
2018-12-21T01:46:39.532Z,70.36
2018-12-21T01:49:05.522Z,69.81
2018-12-21T01:51:31.490Z,69.66
2018-12-21T01:53:57.490Z,70.06
2018-12-21T01:56:23.449Z,69.68
2018-12-21T01:58:49.439Z,70.20
2018-12-21T02:01:15.432Z,70.73
2018-12-21T02:03:41.480Z,70.09
2018-12-21T02:06:07.454Z,69.36
2018-12-21T02:08:33.493Z,69.89
2018-12-21T02:10:59.449Z,71.37
2018-12-21T02:13:25.427Z,70.24
2018-12-21T02:15:51.395Z,70.42
2018-12-21T02:18:17.413Z,70.39
2018-12-21T02:20:44.030Z,70.57
2018-12-21T02:23:10.043Z,69.79
2018-12-21T02:25:36.125Z,70.03
2018-12-21T02:28:02.181Z,70.31
2018-12-21T02:30:28.279Z,69.74
2018-12-21T02:32:54.271Z,70.61
2018-12-21T02:35:20.442Z,71.37
2018-12-21T02:37:46.408Z,70.59
2018-12-21T02:40:12.421Z,72.57
2018-12-21T02:42:38.376Z,72.48
2018-12-21T02:45:05.687Z,73.28
2018-12-21T02:47:31.670Z,74.90
2018-12-21T02:49:57.632Z,75.71
2018-12-21T02:52:24.367Z,75.76
2018-12-21T02:54:50.399Z,75.33
2018-12-21T02:57:16.425Z,75.91
2018-12-21T02:59:42.382Z,75.27
2018-12-21T03:02:08.383Z,75.03
2018-12-21T03:04:34.495Z,74.72
2018-12-21T03:07:00.449Z,74.29
2018-12-21T03:09:26.461Z,74.49
2018-12-21T03:11:52.429Z,74.05
2018-12-21T03:14:18.422Z,74.46
2018-12-21T03:16:44.445Z,73.84
2018-12-21T03:19:10.412Z,73.24
2018-12-21T03:21:36.418Z,73.86
2018-12-21T03:24:02.395Z,73.42
2018-12-21T03:26:28.388Z,74.33
2018-12-21T03:28:54.393Z,73.66
2018-12-21T03:31:21.033Z,73.98
2018-12-21T03:33:47.055Z,74.11
2018-12-21T03:36:13.076Z,74.09
2018-12-21T03:38:39.169Z,73.84
2018-12-21T03:41:05.164Z,73.61
2018-12-21T03:43:31.231Z,73.76
2018-12-21T03:45:57.239Z,73.45
2018-12-21T03:48:23.238Z,73.68
2018-12-21T03:50:49.194Z,73.33
2018-12-21T03:53:15.171Z,72.83
2018-12-21T03:55:41.253Z,72.81
2018-12-21T03:58:07.216Z,72.84
2018-12-21T04:00:33.253Z,72.70
2018-12-21T04:02:59.262Z,73.39
2018-12-21T04:05:25.306Z,73.29
2018-12-21T04:07:51.351Z,72.71
2018-12-21T04:10:17.369Z,73.10
2018-12-21T04:12:43.356Z,72.98
2018-12-21T04:15:09.484Z,73.19
2018-12-21T04:17:35.738Z,72.06
2018-12-21T04:20:01.747Z,72.90
2018-12-21T04:22:34.112Z,72.70
2018-12-21T04:24:55.683Z,71.81
2018-12-21T04:27:21.693Z,72.66
2018-12-21T04:29:47.649Z,72.82
2018-12-21T04:32:13.724Z,72.84
2018-12-21T04:34:39.691Z,72.28
2018-12-21T04:37:05.685Z,72.15
2018-12-21T04:39:31.763Z,72.49
2018-12-21T04:41:57.797Z,72.06
2018-12-21T04:44:23.765Z,71.91
2018-12-21T04:46:49.727Z,70.77
2018-12-21T04:49:15.733Z,70.92
2018-12-21T04:51:41.787Z,70.65
2018-12-21T04:54:07.794Z,70.85
2018-12-21T04:56:33.738Z,70.72
2018-12-21T04:58:59.809Z,70.45
2018-12-21T05:01:25.873Z,70.72
2018-12-21T05:03:51.944Z,70.63
2018-12-21T05:06:17.911Z,70.28
2018-12-21T05:08:44.187Z,69.92
2018-12-21T05:11:10.196Z,69.98
2018-12-21T05:13:36.203Z,70.43
2018-12-21T05:16:02.209Z,69.47
2018-12-21T05:18:28.211Z,69.07
2018-12-21T05:21:01.232Z,69.55
2018-12-21T05:23:27.247Z,69.47
2018-12-21T05:25:53.245Z,69.00
2018-12-21T05:28:19.269Z,69.14
2018-12-21T05:30:45.341Z,69.30
2018-12-21T05:33:11.324Z,68.71
2018-12-21T05:35:37.326Z,68.80
2018-12-21T05:38:03.310Z,68.60
2018-12-21T05:40:29.380Z,68.45
2018-12-21T05:42:55.336Z,68.02
2018-12-21T05:45:21.328Z,68.02
2018-12-21T05:47:47.278Z,68.12
2018-12-21T05:50:13.288Z,67.39
2018-12-21T05:52:39.267Z,67.85
2018-12-21T05:55:05.348Z,67.89
2018-12-21T05:57:31.324Z,67.83
2018-12-21T05:59:57.322Z,67.79
2018-12-21T06:02:23.496Z,68.36
2018-12-21T06:04:49.477Z,67.68
2018-12-21T06:07:15.446Z,67.60
2018-12-21T06:09:41.433Z,67.29
2018-12-21T06:12:07.397Z,66.68
2018-12-21T06:14:33.385Z,67.41
2018-12-21T06:16:59.342Z,66.68
2018-12-21T06:19:30.010Z,67.06
2018-12-21T06:21:56.051Z,67.21
2018-12-21T06:24:22.067Z,67.33
2018-12-21T06:26:48.043Z,66.60
2018-12-21T06:29:14.049Z,67.47
2018-12-21T06:31:40.127Z,67.34
2018-12-21T06:34:06.106Z,66.19
2018-12-21T06:36:32.120Z,66.41
2018-12-21T06:38:58.140Z,66.82
2018-12-21T06:41:24.151Z,66.54
2018-12-21T06:43:50.125Z,67.05
2018-12-21T06:46:16.130Z,67.17
2018-12-21T06:48:42.105Z,66.33
2018-12-21T06:51:08.092Z,66.67
2018-12-21T06:53:34.221Z,67.69
2018-12-21T06:56:00.252Z,67.62
2018-12-21T06:58:26.333Z,67.52
2018-12-21T07:00:52.316Z,66.98
2018-12-21T07:03:18.300Z,66.86
2018-12-21T07:05:44.444Z,66.12
2018-12-21T07:08:10.616Z,66.42
2018-12-21T07:10:36.608Z,67.29
2018-12-21T07:13:02.529Z,66.52
2018-12-21T07:15:28.848Z,65.83
2018-12-21T07:17:54.808Z,66.72
2018-12-21T07:20:20.786Z,65.83
2018-12-21T07:22:46.796Z,65.90
2018-12-21T07:25:12.752Z,65.80
2018-12-21T07:27:38.740Z,66.32
2018-12-21T07:30:07.074Z,65.74
2018-12-21T07:32:39.996Z,66.26
2018-12-21T07:35:07.741Z,66.25
2018-12-21T07:37:34.094Z,66.89
2018-12-21T07:40:00.112Z,66.80
2018-12-21T07:42:26.257Z,67.04
2018-12-21T07:44:52.312Z,67.11
2018-12-21T07:47:18.312Z,66.12
2018-12-21T07:49:44.281Z,67.94
2018-12-21T07:52:10.265Z,67.57
2018-12-21T07:54:36.252Z,67.31
2018-12-21T07:57:02.309Z,67.81
2018-12-21T07:59:28.290Z,67.09
2018-12-21T08:01:54.292Z,66.05
2018-12-21T08:04:20.599Z,66.09
2018-12-21T08:06:46.834Z,66.73
2018-12-21T08:09:12.805Z,66.82
2018-12-21T08:11:38.812Z,67.74
2018-12-21T08:14:04.784Z,68.52
2018-12-21T08:16:30.797Z,68.93
2018-12-21T08:18:56.982Z,69.62
2018-12-21T08:21:22.925Z,69.45
2018-12-21T08:23:48.923Z,69.61
2018-12-21T08:26:14.992Z,69.76
2018-12-21T08:28:41.035Z,69.69
2018-12-21T08:31:07.027Z,70.08
2018-12-21T08:33:33.067Z,70.15
2018-12-21T08:35:59.051Z,69.24
2018-12-21T08:38:25.099Z,69.46
2018-12-21T08:40:51.079Z,69.99
2018-12-21T08:43:17.083Z,70.21
2018-12-21T08:45:43.045Z,70.32
2018-12-21T08:48:09.077Z,71.12
2018-12-21T08:50:35.069Z,70.87
2018-12-21T08:53:01.065Z,70.90
2018-12-21T08:55:27.144Z,70.32
2018-12-21T08:57:53.199Z,70.46
2018-12-21T09:00:19.260Z,70.05
2018-12-21T09:02:45.430Z,70.35
2018-12-21T09:05:11.438Z,70.45
2018-12-21T09:07:37.426Z,70.71
2018-12-21T09:10:05.917Z,70.93
2018-12-21T09:12:31.980Z,70.57
2018-12-21T09:14:57.990Z,71.86
2018-12-21T09:17:24.044Z,70.77
2018-12-21T09:19:50.118Z,71.28
2018-12-21T09:22:16.085Z,71.99
2018-12-21T09:24:42.256Z,71.98
2018-12-21T09:27:08.218Z,71.37
2018-12-21T09:29:34.235Z,72.23
2018-12-21T09:32:05.083Z,71.94
2018-12-21T09:34:28.344Z,71.01
2018-12-21T09:36:54.325Z,72.07
2018-12-21T09:39:20.541Z,71.31
2018-12-21T09:41:46.531Z,71.82
2018-12-21T09:44:12.542Z,71.41
2018-12-21T09:46:38.502Z,72.10
2018-12-21T09:49:04.491Z,72.84
2018-12-21T09:51:30.480Z,72.08
2018-12-21T09:53:56.521Z,72.39
2018-12-21T09:56:22.604Z,71.82
2018-12-21T09:58:48.599Z,72.63
2018-12-21T10:01:14.560Z,72.42
2018-12-21T10:03:40.710Z,72.34
2018-12-21T10:06:06.810Z,72.10
2018-12-21T10:08:32.819Z,72.12
2018-12-21T10:10:58.875Z,71.69
2018-12-21T10:13:24.909Z,72.62
2018-12-21T10:15:50.955Z,72.46
2018-12-21T10:18:16.922Z,72.71
2018-12-21T10:20:42.887Z,71.92
2018-12-21T10:23:08.919Z,72.46
2018-12-21T10:25:34.911Z,72.16
2018-12-21T10:28:00.866Z,72.24
2018-12-21T10:30:26.912Z,71.95
2018-12-21T10:32:52.885Z,72.13
2018-12-21T10:35:18.995Z,72.28
2018-12-21T10:37:44.949Z,71.00
2018-12-21T10:40:11.013Z,71.16
2018-12-21T10:42:37.011Z,71.22
2018-12-21T10:45:03.965Z,70.98
2018-12-21T10:47:29.961Z,71.54
2018-12-21T10:49:55.892Z,71.52
2018-12-21T10:52:21.901Z,72.38
2018-12-21T10:54:47.869Z,71.96
2018-12-21T10:57:13.878Z,72.24
2018-12-21T10:59:43.458Z,72.56
2018-12-21T11:02:07.943Z,72.66
2018-12-21T11:04:33.898Z,72.48
2018-12-21T11:06:59.972Z,72.91
2018-12-21T11:09:25.929Z,73.30
2018-12-21T11:11:51.886Z,72.75
2018-12-21T11:14:17.952Z,73.30
2018-12-21T11:16:43.949Z,72.88
2018-12-21T11:19:09.990Z,72.99
2018-12-21T11:21:36.053Z,74.16
2018-12-21T11:24:02.117Z,73.50
2018-12-21T11:26:28.346Z,73.40
2018-12-21T11:28:54.318Z,74.67
2018-12-21T11:31:20.316Z,74.01
2018-12-21T11:33:46.354Z,73.92
2018-12-21T11:36:12.365Z,74.12
2018-12-21T11:38:39.402Z,74.40
2018-12-21T11:41:05.499Z,74.30
2018-12-21T11:43:31.446Z,74.63
2018-12-21T11:45:57.450Z,74.56
2018-12-21T11:48:23.398Z,74.52
2018-12-21T11:50:49.401Z,74.88
2018-12-21T11:53:15.365Z,75.33
2018-12-21T11:55:41.464Z,75.62
2018-12-21T11:58:08.011Z,65.61
2018-12-21T12:00:34.003Z,72.72
2018-12-21T12:03:00.008Z,73.83
2018-12-21T12:05:25.966Z,74.33
2018-12-21T12:07:51.953Z,74.03
2018-12-21T12:10:17.938Z,74.90
2018-12-21T12:12:43.968Z,74.58
2018-12-21T12:15:09.939Z,73.72
2018-12-21T12:17:35.921Z,73.82
2018-12-21T12:20:02.884Z,74.54
2018-12-21T12:22:28.843Z,74.33
2018-12-21T12:24:55.464Z,74.25
2018-12-21T12:27:21.547Z,74.64
2018-12-21T12:29:47.589Z,74.09
2018-12-21T12:32:13.609Z,73.85
2018-12-21T12:34:39.587Z,74.72
2018-12-21T12:37:05.606Z,74.66
2018-12-21T12:39:31.581Z,74.20
2018-12-21T12:41:57.630Z,73.91
2018-12-21T12:44:23.597Z,74.25
2018-12-21T12:46:49.611Z,74.32
2018-12-21T12:49:15.624Z,75.11
2018-12-21T12:51:41.570Z,75.06
2018-12-21T12:54:07.573Z,75.10
2018-12-21T12:56:33.534Z,73.95
2018-12-21T12:58:59.608Z,73.96
2018-12-21T13:01:25.672Z,74.04
2018-12-21T13:03:51.750Z,73.91
2018-12-21T13:06:17.702Z,73.99
2018-12-21T13:08:43.745Z,74.28
2018-12-21T13:11:09.782Z,73.93
2018-12-21T13:13:35.855Z,73.26
2018-12-21T13:16:01.873Z,74.25
2018-12-21T13:18:27.905Z,74.58
2018-12-21T13:20:53.871Z,73.89
2018-12-21T13:23:19.874Z,73.91
2018-12-21T13:25:45.867Z,74.39
2018-12-21T13:28:11.887Z,73.24
2018-12-21T13:30:37.849Z,73.23
2018-12-21T13:33:03.878Z,73.84
2018-12-21T13:35:29.874Z,74.40
2018-12-21T13:37:55.865Z,74.22
2018-12-21T13:40:21.879Z,73.94
2018-12-21T13:42:48.059Z,74.08
2018-12-21T13:45:14.017Z,74.04
2018-12-21T13:47:40.029Z,74.29
2018-12-21T13:50:08.261Z,74.80
2018-12-21T13:52:34.370Z,73.85
2018-12-21T13:55:00.336Z,74.13
2018-12-21T13:57:26.322Z,74.20
2018-12-21T13:59:52.343Z,73.73
2018-12-21T14:02:18.292Z,73.69
2018-12-21T14:04:44.348Z,72.99
2018-12-21T14:07:10.364Z,73.64
2018-12-21T14:09:36.375Z,73.79
2018-12-21T14:12:02.364Z,73.05
2018-12-21T14:14:28.380Z,73.62
2018-12-21T14:16:54.370Z,73.26
2018-12-21T14:19:20.396Z,73.08
2018-12-21T14:21:46.348Z,73.05
2018-12-21T14:24:12.363Z,73.30
2018-12-21T14:26:38.377Z,73.99
2018-12-21T14:29:04.457Z,74.06
2018-12-21T14:31:31.672Z,73.25
2018-12-21T14:33:57.679Z,74.24
2018-12-21T14:36:23.780Z,75.10
2018-12-21T14:38:49.780Z,75.74
2018-12-21T14:41:15.785Z,76.88
2018-12-21T14:43:41.752Z,77.00
2018-12-21T14:46:07.730Z,76.54
2018-12-21T14:48:34.084Z,76.68
2018-12-21T14:51:00.046Z,76.58
2018-12-21T14:53:26.027Z,77.59
2018-12-21T14:55:51.991Z,77.87
2018-12-21T14:58:18.025Z,76.98
2018-12-21T15:00:44.039Z,76.63
2018-12-21T15:03:10.058Z,75.70
2018-12-21T15:05:36.095Z,75.96
2018-12-21T15:08:02.087Z,75.41
2018-12-21T15:10:28.115Z,76.54
2018-12-21T15:12:54.084Z,76.07
2018-12-21T15:15:20.089Z,75.31
2018-12-21T15:17:46.063Z,75.81
2018-12-21T15:20:12.100Z,75.74
2018-12-21T15:22:38.082Z,76.30
2018-12-21T15:25:04.222Z,76.40
2018-12-21T15:27:30.192Z,75.49
2018-12-21T15:29:56.213Z,76.53
2018-12-21T15:32:22.188Z,76.24
2018-12-21T15:34:48.222Z,76.30
2018-12-21T15:37:14.300Z,75.41
2018-12-21T15:39:40.293Z,76.46
2018-12-21T15:42:06.452Z,75.51
2018-12-21T15:44:32.433Z,76.27
2018-12-21T15:46:58.503Z,76.40
2018-12-21T15:49:24.478Z,74.89
2018-12-21T15:51:50.478Z,75.74
2018-12-21T15:54:16.459Z,75.97
2018-12-21T15:56:42.446Z,75.29
2018-12-21T15:59:08.445Z,75.68
2018-12-21T16:01:37.077Z,76.17
2018-12-21T16:04:02.551Z,75.47
2018-12-21T16:06:28.610Z,75.56
2018-12-21T16:08:54.643Z,76.27
2018-12-21T16:11:20.640Z,76.84
2018-12-21T16:13:46.663Z,75.88
2018-12-21T16:16:12.705Z,76.46
2018-12-21T16:18:38.717Z,75.15
2018-12-21T16:21:04.662Z,76.56
2018-12-21T16:23:30.680Z,75.46
2018-12-21T16:26:03.454Z,76.63
2018-12-21T16:28:25.285Z,75.91
2018-12-21T16:30:51.333Z,75.33
2018-12-21T16:33:17.304Z,76.25
2018-12-21T16:35:43.296Z,76.90
2018-12-21T16:38:09.263Z,75.98
2018-12-21T16:40:35.274Z,76.21
2018-12-21T16:43:01.248Z,76.34
2018-12-21T16:45:27.251Z,76.59
2018-12-21T16:47:53.219Z,76.80
2018-12-21T16:50:19.227Z,75.71
2018-12-21T16:52:45.221Z,75.65
2018-12-21T16:55:11.216Z,76.69
2018-12-21T16:57:37.297Z,75.53
2018-12-21T17:00:07.364Z,75.76
2018-12-21T17:02:33.452Z,74.73
2018-12-21T17:04:59.553Z,75.53
2018-12-21T17:07:25.689Z,75.19
2018-12-21T17:09:51.691Z,74.85
2018-12-21T17:12:17.707Z,74.37
2018-12-21T17:14:43.675Z,72.57
2018-12-21T17:17:09.749Z,72.31
2018-12-21T17:19:35.768Z,72.57
2018-12-21T17:22:01.780Z,72.37
2018-12-21T17:24:27.795Z,71.27
2018-12-21T17:26:53.970Z,71.69
2018-12-21T17:29:19.919Z,71.26
2018-12-21T17:31:45.935Z,70.85
2018-12-21T17:34:12.016Z,69.74
2018-12-21T17:36:38.025Z,69.59
2018-12-21T17:39:05.961Z,69.67
2018-12-21T17:41:31.931Z,68.96
2018-12-21T17:43:57.945Z,68.59
2018-12-21T17:46:23.918Z,68.80
2018-12-21T17:48:50.251Z,68.18
2018-12-21T17:51:16.333Z,67.36
2018-12-21T17:53:42.326Z,66.86
2018-12-21T17:56:08.295Z,65.71
2018-12-21T17:58:34.384Z,65.30
2018-12-21T18:01:00.609Z,64.97
2018-12-21T18:03:27.579Z,64.46
2018-12-21T18:05:53.560Z,64.83
2018-12-21T18:08:19.598Z,64.60
2018-12-21T18:10:45.580Z,64.89
2018-12-21T18:13:11.596Z,64.73
2018-12-21T18:15:37.616Z,64.52
2018-12-21T18:18:03.625Z,64.40
2018-12-21T18:20:29.766Z,63.22
2018-12-21T18:22:55.740Z,63.00
2018-12-21T18:25:21.737Z,62.93
2018-12-21T18:27:47.818Z,63.21
2018-12-21T18:30:17.058Z,62.80
2018-12-21T18:32:43.130Z,62.46
2018-12-21T18:35:09.899Z,61.87
2018-12-21T18:37:37.777Z,62.03
2018-12-21T18:40:07.835Z,62.41
2018-12-21T18:42:40.860Z,61.37
2018-12-21T18:45:07.955Z,62.30
2018-12-21T18:47:34.098Z,61.26
2018-12-21T18:50:00.149Z,62.10
2018-12-21T18:52:26.209Z,62.79
2018-12-21T18:54:52.221Z,61.85
2018-12-21T18:57:18.320Z,62.28
2018-12-21T18:59:44.325Z,61.98
2018-12-21T19:02:10.315Z,60.75
2018-12-21T19:04:36.309Z,61.28
2018-12-21T19:07:02.365Z,61.26
2018-12-21T19:09:28.344Z,61.23
2018-12-21T19:11:54.400Z,62.13
2018-12-21T19:14:20.416Z,62.41
2018-12-21T19:16:46.381Z,62.97
2018-12-21T19:19:12.384Z,62.95
2018-12-21T19:21:38.433Z,63.03
2018-12-21T19:24:04.447Z,62.35
2018-12-21T19:26:30.940Z,62.34
2018-12-21T19:28:56.954Z,63.91
2018-12-21T19:31:23.475Z,63.27
2018-12-21T19:33:49.507Z,62.85
2018-12-21T19:36:15.477Z,63.17
2018-12-21T19:38:41.526Z,62.77
2018-12-21T19:41:07.532Z,63.58
2018-12-21T19:43:33.542Z,62.94
2018-12-21T19:46:01.092Z,62.77
2018-12-21T19:48:27.317Z,64.67
2018-12-21T19:50:53.301Z,66.45
2018-12-21T19:53:19.341Z,66.10
2018-12-21T19:55:47.278Z,66.70
2018-12-21T19:58:13.245Z,66.63
2018-12-21T20:00:39.251Z,67.44
2018-12-21T20:03:05.223Z,67.56
2018-12-21T20:05:31.256Z,66.94
2018-12-21T20:07:57.282Z,67.62
2018-12-21T20:10:23.285Z,68.54
2018-12-21T20:12:49.261Z,68.00
2018-12-21T20:15:15.286Z,68.00
2018-12-21T20:17:41.246Z,67.70
2018-12-21T20:20:08.266Z,68.15
2018-12-21T20:22:34.261Z,68.46
2018-12-21T20:25:00.259Z,67.57
2018-12-21T20:27:26.380Z,68.89
2018-12-21T20:29:52.450Z,68.25
2018-12-21T20:32:18.442Z,68.54
2018-12-21T20:34:44.463Z,68.66
2018-12-21T20:37:10.429Z,69.20
2018-12-21T20:39:43.525Z,69.46
2018-12-21T20:42:09.482Z,68.97
2018-12-21T20:44:35.515Z,70.25
2018-12-21T20:47:01.858Z,70.30
2018-12-21T20:49:27.844Z,70.99
2018-12-21T20:51:53.849Z,71.26
2018-12-21T20:54:19.813Z,70.68
2018-12-21T20:56:45.924Z,71.44
2018-12-21T20:59:12.014Z,71.53
2018-12-21T21:01:38.079Z,70.51
2018-12-21T21:04:04.059Z,70.82
2018-12-21T21:06:30.078Z,71.21
2018-12-21T21:08:56.042Z,70.74
2018-12-21T21:11:25.080Z,71.70
2018-12-21T21:13:50.122Z,71.12
2018-12-21T21:16:16.085Z,73.08
2018-12-21T21:18:42.161Z,72.74
2018-12-21T21:21:08.135Z,72.63
2018-12-21T21:23:34.161Z,71.98
2018-12-21T21:26:00.124Z,72.83
2018-12-21T21:28:26.157Z,72.56
2018-12-21T21:30:52.147Z,72.59
2018-12-21T21:33:18.175Z,73.61
2018-12-21T21:35:44.153Z,73.64
2018-12-21T21:38:10.152Z,72.30
2018-12-21T21:40:36.161Z,72.27
2018-12-21T21:43:02.551Z,72.92
2018-12-21T21:45:28.619Z,72.50
2018-12-21T21:47:54.623Z,72.90
2018-12-21T21:50:20.686Z,72.85
2018-12-21T21:52:46.648Z,72.33
2018-12-21T21:55:12.843Z,73.45
2018-12-21T21:57:39.500Z,72.91
2018-12-21T22:00:09.233Z,72.71
2018-12-21T22:02:35.202Z,71.93
2018-12-21T22:05:01.247Z,71.66
2018-12-21T22:07:27.346Z,71.41
2018-12-21T22:09:53.423Z,70.99
2018-12-21T22:12:19.710Z,70.48
2018-12-21T22:14:45.908Z,70.71
2018-12-21T22:17:11.888Z,71.23
2018-12-21T22:19:37.860Z,71.27
2018-12-21T22:22:03.917Z,72.12
2018-12-21T22:24:29.909Z,72.83
2018-12-21T22:26:55.947Z,73.04
2018-12-21T22:29:21.901Z,72.78
2018-12-21T22:31:47.917Z,73.23
2018-12-21T22:34:13.887Z,74.71
2018-12-21T22:36:39.894Z,74.06
2018-12-21T22:39:05.880Z,74.97
2018-12-21T22:41:31.915Z,76.73
2018-12-21T22:43:57.922Z,77.66
2018-12-21T22:46:23.960Z,77.80
2018-12-21T22:48:49.918Z,77.51
2018-12-21T22:51:16.158Z,77.99
2018-12-21T22:53:42.122Z,78.25
2018-12-21T22:56:08.106Z,78.37
2018-12-21T22:58:34.086Z,77.59
2018-12-21T23:01:00.129Z,77.79
2018-12-21T23:03:26.092Z,77.44
2018-12-21T23:05:52.095Z,78.30
2018-12-21T23:08:18.217Z,77.00
2018-12-21T23:10:44.217Z,77.69
2018-12-21T23:13:10.230Z,76.42
2018-12-21T23:15:36.308Z,76.90
2018-12-21T23:18:02.273Z,76.90
2018-12-21T23:20:28.280Z,76.09
2018-12-21T23:22:54.252Z,76.02
2018-12-21T23:25:20.354Z,76.34
2018-12-21T23:27:46.347Z,76.33
2018-12-21T23:30:12.874Z,76.87
2018-12-21T23:32:38.839Z,75.30
2018-12-21T23:35:05.004Z,75.13
2018-12-21T23:37:31.017Z,75.35
2018-12-21T23:39:57.001Z,75.47
2018-12-21T23:42:23.003Z,75.96
2018-12-21T23:44:49.028Z,76.28
2018-12-21T23:47:15.099Z,75.52
2018-12-21T23:49:41.106Z,74.10
2018-12-21T23:52:07.204Z,74.36
2018-12-21T23:54:33.214Z,75.13
2018-12-21T23:56:59.302Z,74.96
2018-12-21T23:59:25.273Z,74.73
